| State | Missouri | Latest | Unknown (3960 cfs) | |
| River | Salt River | Rating | Observed | Estimated |
| Updated | 2026-05-05 9:00 (49 minutes ago) | Flood - The river is flooding. Obstacles can be treacherous or deadly. The river should be avoided at this stage for casual trips and definitely for the inexperienced. Trips should be attempted only with protective gear and equipment.Flood | (none) | (none) |
| Discharge | 3960 cfs (median: 1640 cfs) | High - The river is high and potentially dangerous, especially for the young and / or inexperienced. Normal stream obstacles are sometimes difficult to navigate. Extended distances can be attempted, but canoe travel may not be advisable.High | (none) | (none) |
| Height | 7.06 feet | Good - Conditions are ideal for a canoe or kayak. Boats typically will drag on fewer than one-quarter of riffles, if at all, and portages are unnecessary or rare. Normal float lengths can be attempted without a problem.Good | (none) | (none) |
| Trend | Rising (rising over 24 hours) | Low - River is low but can still be floated. Some riffles are okay but most come with significant dragging and might need a portage. Float lengths should be reduced to accommodate low flow, dragging, and portages.Low | (none) | (none) |
| USGS | USGS Site ( Duck Duck Go Maps) | Poor - River is too low to float comfortably. Most or all riffles will drag or must be portaged and some obstacles (such as slick shelf rock) cause undue problems. Avoid the river at this stage for casual paddling trips.Poor | (none) | (none) |
A total of 5 rows are displayed.
| Miles | 64.7 |
| Trips | 5 |
| People | 16 |
| Dates | 5 |
| Years | 5 |
| Months | 2 |
| Rows | 5 |
| Sources | 2 |
BLG - Bluegill
CCF - Channel Catfish
CP - Chain Pickerel
FWD - Freshwater Drum
GSF - Green Sunfish
KSB - Kentucky Spotted Bass
LMB - Largemouth Bass
LSF - Longear Sunfish
RB - Rock Bass / Goggle Eye
RSF - Redear Sunfish
RT - Rainbow Trout
SMB - Smallmouth Bass
WB - White Bass
WF - Whitefish
WL - WalleyeThe classic River Trips application is still available for use. It is updated with the new system using a data retrofit. It is no longer maintained. The original River Trips application is no longer updated (as of 1 Dec 2016) but can be checked for errors or for the condition of the data before it was converted to the new system.
| Observation | Height | Discharge | Maximum Discharge | Minimum Discharge | Mean Discharge | P05 | P10 | P20 | P25 | P50 (Median) | P75 | P80 | P90 | P95 |
|---|---|---|---|---|---|---|---|---|---|---|---|---|---|---|
| 2026-05-05 09:00 | 7.06 | 3960 | 15500 (1983) | 62 (2006) | 2610 | 65 | 79 | 140 | 149 | 1640 | 3750 | 4510 | 7330 | 9380 |
| 2026-05-05 08:30 | 6.96 | 3840 | 15500 (1983) | 62 (2006) | 2610 | 65 | 79 | 140 | 149 | 1640 | 3750 | 4510 | 7330 | 9380 |
| 2026-05-05 08:00 | 6.84 | 3690 | 15500 (1983) | 62 (2006) | 2610 | 65 | 79 | 140 | 149 | 1640 | 3750 | 4510 | 7330 | 9380 |
| 2026-05-05 07:30 | 6.64 | 3440 | 15500 (1983) | 62 (2006) | 2610 | 65 | 79 | 140 | 149 | 1640 | 3750 | 4510 | 7330 | 9380 |
| 2026-05-05 07:00 | 6.47 | 3250 | 15500 (1983) | 62 (2006) | 2610 | 65 | 79 | 140 | 149 | 1640 | 3750 | 4510 | 7330 | 9380 |
| 2026-05-05 06:30 | 6.31 | 3060 | 15500 (1983) | 62 (2006) | 2610 | 65 | 79 | 140 | 149 | 1640 | 3750 | 4510 | 7330 | 9380 |
| 2026-05-05 06:00 | 6.19 | 2930 | 15500 (1983) | 62 (2006) | 2610 | 65 | 79 | 140 | 149 | 1640 | 3750 | 4510 | 7330 | 9380 |
| 2026-05-05 05:30 | 6.10 | 2830 | 15500 (1983) | 62 (2006) | 2610 | 65 | 79 | 140 | 149 | 1640 | 3750 | 4510 | 7330 | 9380 |
| 2026-05-05 05:00 | 6.11 | 2840 | 15500 (1983) | 62 (2006) | 2610 | 65 | 79 | 140 | 149 | 1640 | 3750 | 4510 | 7330 | 9380 |
| 2026-05-05 04:30 | 6.20 | 2940 | 15500 (1983) | 62 (2006) | 2610 | 65 | 79 | 140 | 149 | 1640 | 3750 | 4510 | 7330 | 9380 |
| 2026-05-05 04:00 | 6.33 | 3080 | 15500 (1983) | 62 (2006) | 2610 | 65 | 79 | 140 | 149 | 1640 | 3750 | 4510 | 7330 | 9380 |
| 2026-05-05 03:30 | 6.48 | 3260 | 15500 (1983) | 62 (2006) | 2610 | 65 | 79 | 140 | 149 | 1640 | 3750 | 4510 | 7330 | 9380 |
| 2026-05-05 03:00 | 6.65 | 3460 | 15500 (1983) | 62 (2006) | 2610 | 65 | 79 | 140 | 149 | 1640 | 3750 | 4510 | 7330 | 9380 |
| 2026-05-05 02:30 | 6.82 | 3660 | 15500 (1983) | 62 (2006) | 2610 | 65 | 79 | 140 | 149 | 1640 | 3750 | 4510 | 7330 | 9380 |
| 2026-05-05 02:00 | 6.99 | 3870 | 15500 (1983) | 62 (2006) | 2610 | 65 | 79 | 140 | 149 | 1640 | 3750 | 4510 | 7330 | 9380 |
| 2026-05-05 01:30 | 7.15 | 4080 | 15500 (1983) | 62 (2006) | 2610 | 65 | 79 | 140 | 149 | 1640 | 3750 | 4510 | 7330 | 9380 |
| 2026-05-05 01:00 | 7.28 | 4240 | 15500 (1983) | 62 (2006) | 2610 | 65 | 79 | 140 | 149 | 1640 | 3750 | 4510 | 7330 | 9380 |
| 2026-05-05 00:30 | 7.38 | 4370 | 15500 (1983) | 62 (2006) | 2610 | 65 | 79 | 140 | 149 | 1640 | 3750 | 4510 | 7330 | 9380 |
| 2026-05-05 00:00 | 7.47 | 4480 | 15500 (1983) | 62 (2006) | 2610 | 65 | 79 | 140 | 149 | 1640 | 3750 | 4510 | 7330 | 9380 |
| 2026-05-04 23:30 | 7.47 | 4480 | 15500 (1983) | 62 (2006) | 2610 | 65 | 79 | 140 | 149 | 1640 | 3750 | 4510 | 7330 | 9380 |
| 2026-05-04 23:00 | 7.47 | 4480 | 15500 (1983) | 62 (2006) | 2610 | 65 | 79 | 140 | 149 | 1640 | 3750 | 4510 | 7330 | 9380 |
| 2026-05-04 22:30 | 7.46 | 4470 | 19600 (1983) | 69 (2000) | 2570 | 73 | 83 | 136 | 164 | 1550 | 3620 | 4570 | 5940 | 9390 |
| 2026-05-04 22:00 | 7.46 | 4470 | 19600 (1983) | 69 (2000) | 2570 | 73 | 83 | 136 | 164 | 1550 | 3620 | 4570 | 5940 | 9390 |
| 2026-05-04 21:30 | 7.45 | 4460 | 19600 (1983) | 69 (2000) | 2570 | 73 | 83 | 136 | 164 | 1550 | 3620 | 4570 | 5940 | 9390 |
| 2026-05-04 21:00 | 7.42 | 4420 | 19600 (1983) | 69 (2000) | 2570 | 73 | 83 | 136 | 164 | 1550 | 3620 | 4570 | 5940 | 9390 |
| 2026-05-04 20:30 | 7.38 | 4370 | 19600 (1983) | 69 (2000) | 2570 | 73 | 83 | 136 | 164 | 1550 | 3620 | 4570 | 5940 | 9390 |
| 2026-05-04 20:00 | 7.32 | 4300 | 19600 (1983) | 69 (2000) | 2570 | 73 | 83 | 136 | 164 | 1550 | 3620 | 4570 | 5940 | 9390 |
| 2026-05-04 19:30 | 7.30 | 4270 | 19600 (1983) | 69 (2000) | 2570 | 73 | 83 | 136 | 164 | 1550 | 3620 | 4570 | 5940 | 9390 |
| 2026-05-04 19:00 | 7.21 | 4150 | 19600 (1983) | 69 (2000) | 2570 | 73 | 83 | 136 | 164 | 1550 | 3620 | 4570 | 5940 | 9390 |
| 2026-05-04 18:30 | 7.14 | 4060 | 19600 (1983) | 69 (2000) | 2570 | 73 | 83 | 136 | 164 | 1550 | 3620 | 4570 | 5940 | 9390 |
| 2026-05-04 18:00 | 7.02 | 3910 | 19600 (1983) | 69 (2000) | 2570 | 73 | 83 | 136 | 164 | 1550 | 3620 | 4570 | 5940 | 9390 |
| 2026-05-04 17:30 | 6.89 | 3750 | 19600 (1983) | 69 (2000) | 2570 | 73 | 83 | 136 | 164 | 1550 | 3620 | 4570 | 5940 | 9390 |
| 2026-05-04 17:00 | 6.71 | 3530 | 19600 (1983) | 69 (2000) | 2570 | 73 | 83 | 136 | 164 | 1550 | 3620 | 4570 | 5940 | 9390 |
| 2026-05-04 16:30 | 6.51 | 3290 | 19600 (1983) | 69 (2000) | 2570 | 73 | 83 | 136 | 164 | 1550 | 3620 | 4570 | 5940 | 9390 |
| 2026-05-04 16:00 | 6.20 | 2940 | 19600 (1983) | 69 (2000) | 2570 | 73 | 83 | 136 | 164 | 1550 | 3620 | 4570 | 5940 | 9390 |
| 2026-05-04 15:30 | 5.88 | 2590 | 19600 (1983) | 69 (2000) | 2570 | 73 | 83 | 136 | 164 | 1550 | 3620 | 4570 | 5940 | 9390 |
| 2026-05-04 15:00 | 5.49 | 2200 | 19600 (1983) | 69 (2000) | 2570 | 73 | 83 | 136 | 164 | 1550 | 3620 | 4570 | 5940 | 9390 |
| 2026-05-04 14:30 | 5.07 | 1730 | 19600 (1983) | 69 (2000) | 2570 | 73 | 83 | 136 | 164 | 1550 | 3620 | 4570 | 5940 | 9390 |
| 2026-05-04 14:00 | 4.66 | 1320 | 19600 (1983) | 69 (2000) | 2570 | 73 | 83 | 136 | 164 | 1550 | 3620 | 4570 | 5940 | 9390 |
| 2026-05-04 13:30 | 4.34 | 1040 | 19600 (1983) | 69 (2000) | 2570 | 73 | 83 | 136 | 164 | 1550 | 3620 | 4570 | 5940 | 9390 |
| 2026-05-04 13:00 | 4.18 | 917 | 19600 (1983) | 69 (2000) | 2570 | 73 | 83 | 136 | 164 | 1550 | 3620 | 4570 | 5940 | 9390 |
| 2026-05-04 12:30 | 4.17 | 910 | 19600 (1983) | 69 (2000) | 2570 | 73 | 83 | 136 | 164 | 1550 | 3620 | 4570 | 5940 | 9390 |
| 2026-05-04 12:00 | 4.25 | 971 | 19600 (1983) | 69 (2000) | 2570 | 73 | 83 | 136 | 164 | 1550 | 3620 | 4570 | 5940 | 9390 |
| 2026-05-04 11:30 | 4.35 | 1050 | 19600 (1983) | 69 (2000) | 2570 | 73 | 83 | 136 | 164 | 1550 | 3620 | 4570 | 5940 | 9390 |
| 2026-05-04 11:00 | 4.48 | 1160 | 19600 (1983) | 69 (2000) | 2570 | 73 | 83 | 136 | 164 | 1550 | 3620 | 4570 | 5940 | 9390 |
| 2026-05-04 10:30 | 4.61 | 1280 | 19600 (1983) | 69 (2000) | 2570 | 73 | 83 | 136 | 164 | 1550 | 3620 | 4570 | 5940 | 9390 |
| 2026-05-04 10:00 | 4.74 | 1400 | 19600 (1983) | 69 (2000) | 2570 | 73 | 83 | 136 | 164 | 1550 | 3620 | 4570 | 5940 | 9390 |
| 2026-05-04 09:30 | 4.87 | 1520 | 19600 (1983) | 69 (2000) | 2570 | 73 | 83 | 136 | 164 | 1550 | 3620 | 4570 | 5940 | 9390 |
| 2026-05-04 09:00 | 5.00 | 1660 | 19600 (1983) | 69 (2000) | 2570 | 73 | 83 | 136 | 164 | 1550 | 3620 | 4570 | 5940 | 9390 |
| 2026-05-04 08:30 | 5.12 | 1780 | 19600 (1983) | 69 (2000) | 2570 | 73 | 83 | 136 | 164 | 1550 | 3620 | 4570 | 5940 | 9390 |
| 2026-05-04 08:00 | 5.26 | 1940 | 19600 (1983) | 69 (2000) | 2570 | 73 | 83 | 136 | 164 | 1550 | 3620 | 4570 | 5940 | 9390 |
| 2026-05-04 07:30 | 5.38 | 2080 | 19600 (1983) | 69 (2000) | 2570 | 73 | 83 | 136 | 164 | 1550 | 3620 | 4570 | 5940 | 9390 |
| 2026-05-04 07:00 | 5.51 | 2220 | 19600 (1983) | 69 (2000) | 2570 | 73 | 83 | 136 | 164 | 1550 | 3620 | 4570 | 5940 | 9390 |
| 2026-05-04 06:30 | 5.65 | 2360 | 19600 (1983) | 69 (2000) | 2570 | 73 | 83 | 136 | 164 | 1550 | 3620 | 4570 | 5940 | 9390 |
| 2026-05-04 06:00 | 5.79 | 2500 | 19600 (1983) | 69 (2000) | 2570 | 73 | 83 | 136 | 164 | 1550 | 3620 | 4570 | 5940 | 9390 |
| 2026-05-04 05:30 | 5.95 | 2670 | 19600 (1983) | 69 (2000) | 2570 | 73 | 83 | 136 | 164 | 1550 | 3620 | 4570 | 5940 | 9390 |
| 2026-05-04 05:00 | 6.12 | 2850 | 19600 (1983) | 69 (2000) | 2570 | 73 | 83 | 136 | 164 | 1550 | 3620 | 4570 | 5940 | 9390 |
| 2026-05-04 04:30 | 6.28 | 3030 | 19600 (1983) | 69 (2000) | 2570 | 73 | 83 | 136 | 164 | 1550 | 3620 | 4570 | 5940 | 9390 |
| 2026-05-04 04:00 | 6.45 | 3220 | 19600 (1983) | 69 (2000) | 2570 | 73 | 83 | 136 | 164 | 1550 | 3620 | 4570 | 5940 | 9390 |
| 2026-05-04 03:30 | 6.66 | 3470 | 19600 (1983) | 69 (2000) | 2570 | 73 | 83 | 136 | 164 | 1550 | 3620 | 4570 | 5940 | 9390 |
| 2026-05-04 03:00 | 6.82 | 3660 | 19600 (1983) | 69 (2000) | 2570 | 73 | 83 | 136 | 164 | 1550 | 3620 | 4570 | 5940 | 9390 |
| 2026-05-04 02:30 | 6.98 | 3860 | 19600 (1983) | 69 (2000) | 2570 | 73 | 83 | 136 | 164 | 1550 | 3620 | 4570 | 5940 | 9390 |
| 2026-05-04 02:00 | 7.14 | 4060 | 19600 (1983) | 69 (2000) | 2570 | 73 | 83 | 136 | 164 | 1550 | 3620 | 4570 | 5940 | 9390 |
| 2026-05-04 01:30 | 7.29 | 4260 | 19600 (1983) | 69 (2000) | 2570 | 73 | 83 | 136 | 164 | 1550 | 3620 | 4570 | 5940 | 9390 |
| 2026-05-04 01:00 | 7.39 | 4390 | 19600 (1983) | 69 (2000) | 2570 | 73 | 83 | 136 | 164 | 1550 | 3620 | 4570 | 5940 | 9390 |
| 2026-05-04 00:30 | 7.45 | 4460 | 19600 (1983) | 69 (2000) | 2570 | 73 | 83 | 136 | 164 | 1550 | 3620 | 4570 | 5940 | 9390 |
| 2026-05-04 00:00 | 7.52 | 4540 | 19600 (1983) | 69 (2000) | 2570 | 73 | 83 | 136 | 164 | 1550 | 3620 | 4570 | 5940 | 9390 |
| 2026-05-03 23:30 | 7.52 | 4540 | 19600 (1983) | 69 (2000) | 2570 | 73 | 83 | 136 | 164 | 1550 | 3620 | 4570 | 5940 | 9390 |
| 2026-05-03 23:00 | 7.52 | 4540 | 19600 (1983) | 69 (2000) | 2570 | 73 | 83 | 136 | 164 | 1550 | 3620 | 4570 | 5940 | 9390 |
| 2026-05-03 22:30 | 7.51 | 4530 | 19400 (1983) | 71 (2000) | 2670 | 73 | 83 | 140 | 152 | 1970 | 4180 | 4680 | 5960 | 8180 |
| 2026-05-03 22:00 | 7.48 | 4490 | 19400 (1983) | 71 (2000) | 2670 | 73 | 83 | 140 | 152 | 1970 | 4180 | 4680 | 5960 | 8180 |
| 2026-05-03 21:30 | 7.51 | 4530 | 19400 (1983) | 71 (2000) | 2670 | 73 | 83 | 140 | 152 | 1970 | 4180 | 4680 | 5960 | 8180 |
| 2026-05-03 21:00 | 7.51 | 4530 | 19400 (1983) | 71 (2000) | 2670 | 73 | 83 | 140 | 152 | 1970 | 4180 | 4680 | 5960 | 8180 |
| 2026-05-03 20:30 | 7.48 | 4490 | 19400 (1983) | 71 (2000) | 2670 | 73 | 83 | 140 | 152 | 1970 | 4180 | 4680 | 5960 | 8180 |
| 2026-05-03 20:00 | 7.46 | 4470 | 19400 (1983) | 71 (2000) | 2670 | 73 | 83 | 140 | 152 | 1970 | 4180 | 4680 | 5960 | 8180 |
| 2026-05-03 19:30 | 7.44 | 4440 | 19400 (1983) | 71 (2000) | 2670 | 73 | 83 | 140 | 152 | 1970 | 4180 | 4680 | 5960 | 8180 |
| 2026-05-03 19:00 | 7.42 | 4420 | 19400 (1983) | 71 (2000) | 2670 | 73 | 83 | 140 | 152 | 1970 | 4180 | 4680 | 5960 | 8180 |
| 2026-05-03 18:30 | 7.38 | 4370 | 19400 (1983) | 71 (2000) | 2670 | 73 | 83 | 140 | 152 | 1970 | 4180 | 4680 | 5960 | 8180 |
| 2026-05-03 18:00 | 7.36 | 4350 | 19400 (1983) | 71 (2000) | 2670 | 73 | 83 | 140 | 152 | 1970 | 4180 | 4680 | 5960 | 8180 |
| 2026-05-03 17:30 | 7.27 | 4230 | 19400 (1983) | 71 (2000) | 2670 | 73 | 83 | 140 | 152 | 1970 | 4180 | 4680 | 5960 | 8180 |
| 2026-05-03 17:00 | 7.23 | 4180 | 19400 (1983) | 71 (2000) | 2670 | 73 | 83 | 140 | 152 | 1970 | 4180 | 4680 | 5960 | 8180 |
| 2026-05-03 16:30 | 7.13 | 4050 | 19400 (1983) | 71 (2000) | 2670 | 73 | 83 | 140 | 152 | 1970 | 4180 | 4680 | 5960 | 8180 |
| 2026-05-03 16:00 | 6.99 | 3870 | 19400 (1983) | 71 (2000) | 2670 | 73 | 83 | 140 | 152 | 1970 | 4180 | 4680 | 5960 | 8180 |
| 2026-05-03 15:30 | 6.82 | 3660 | 19400 (1983) | 71 (2000) | 2670 | 73 | 83 | 140 | 152 | 1970 | 4180 | 4680 | 5960 | 8180 |
| 2026-05-03 15:00 | 6.59 | 3390 | 19400 (1983) | 71 (2000) | 2670 | 73 | 83 | 140 | 152 | 1970 | 4180 | 4680 | 5960 | 8180 |
| 2026-05-03 14:30 | 6.28 | 3030 | 19400 (1983) | 71 (2000) | 2670 | 73 | 83 | 140 | 152 | 1970 | 4180 | 4680 | 5960 | 8180 |
| 2026-05-03 14:00 | 5.88 | 2590 | 19400 (1983) | 71 (2000) | 2670 | 73 | 83 | 140 | 152 | 1970 | 4180 | 4680 | 5960 | 8180 |
| 2026-05-03 13:30 | 5.41 | 2120 | 19400 (1983) | 71 (2000) | 2670 | 73 | 83 | 140 | 152 | 1970 | 4180 | 4680 | 5960 | 8180 |
| 2026-05-03 13:00 | 4.89 | 1540 | 19400 (1983) | 71 (2000) | 2670 | 73 | 83 | 140 | 152 | 1970 | 4180 | 4680 | 5960 | 8180 |
| 2026-05-03 12:30 | 4.47 | 1150 | 19400 (1983) | 71 (2000) | 2670 | 73 | 83 | 140 | 152 | 1970 | 4180 | 4680 | 5960 | 8180 |
| 2026-05-03 12:00 | 4.26 | 979 | 19400 (1983) | 71 (2000) | 2670 | 73 | 83 | 140 | 152 | 1970 | 4180 | 4680 | 5960 | 8180 |
| 2026-05-03 11:30 | 4.21 | 940 | 19400 (1983) | 71 (2000) | 2670 | 73 | 83 | 140 | 152 | 1970 | 4180 | 4680 | 5960 | 8180 |
| 2026-05-03 11:00 | 4.24 | 964 | 19400 (1983) | 71 (2000) | 2670 | 73 | 83 | 140 | 152 | 1970 | 4180 | 4680 | 5960 | 8180 |
| 2026-05-03 10:30 | 4.30 | 1010 | 19400 (1983) | 71 (2000) | 2670 | 73 | 83 | 140 | 152 | 1970 | 4180 | 4680 | 5960 | 8180 |
| 2026-05-03 10:00 | 4.36 | 1060 | 19400 (1983) | 71 (2000) | 2670 | 73 | 83 | 140 | 152 | 1970 | 4180 | 4680 | 5960 | 8180 |
| 2026-05-03 09:30 | 4.42 | 1110 | 19400 (1983) | 71 (2000) | 2670 | 73 | 83 | 140 | 152 | 1970 | 4180 | 4680 | 5960 | 8180 |
| 2026-05-03 09:00 | 4.49 | 1170 | 19400 (1983) | 71 (2000) | 2670 | 73 | 83 | 140 | 152 | 1970 | 4180 | 4680 | 5960 | 8180 |
| 2026-05-03 08:30 | 4.53 | 1200 | 19400 (1983) | 71 (2000) | 2670 | 73 | 83 | 140 | 152 | 1970 | 4180 | 4680 | 5960 | 8180 |
| 2026-05-03 08:00 | 4.59 | 1260 | 19400 (1983) | 71 (2000) | 2670 | 73 | 83 | 140 | 152 | 1970 | 4180 | 4680 | 5960 | 8180 |
| 2026-05-03 07:30 | 4.61 | 1280 | 19400 (1983) | 71 (2000) | 2670 | 73 | 83 | 140 | 152 | 1970 | 4180 | 4680 | 5960 | 8180 |
| 2026-05-03 07:00 | 4.62 | 1280 | 19400 (1983) | 71 (2000) | 2670 | 73 | 83 | 140 | 152 | 1970 | 4180 | 4680 | 5960 | 8180 |
| 2026-05-03 06:30 | 4.60 | 1270 | 19400 (1983) | 71 (2000) | 2670 | 73 | 83 | 140 | 152 | 1970 | 4180 | 4680 | 5960 | 8180 |
| 2026-05-03 06:00 | 4.55 | 1220 | 19400 (1983) | 71 (2000) | 2670 | 73 | 83 | 140 | 152 | 1970 | 4180 | 4680 | 5960 | 8180 |
| 2026-05-03 05:30 | 4.45 | 1130 | 19400 (1983) | 71 (2000) | 2670 | 73 | 83 | 140 | 152 | 1970 | 4180 | 4680 | 5960 | 8180 |
| 2026-05-03 05:00 | 4.31 | 1020 | 19400 (1983) | 71 (2000) | 2670 | 73 | 83 | 140 | 152 | 1970 | 4180 | 4680 | 5960 | 8180 |
| 2026-05-03 04:30 | 4.12 | 873 | 19400 (1983) | 71 (2000) | 2670 | 73 | 83 | 140 | 152 | 1970 | 4180 | 4680 | 5960 | 8180 |
| 2026-05-03 04:00 | 3.88 | 706 | 19400 (1983) | 71 (2000) | 2670 | 73 | 83 | 140 | 152 | 1970 | 4180 | 4680 | 5960 | 8180 |
| 2026-05-03 03:30 | 3.59 | 529 | 19400 (1983) | 71 (2000) | 2670 | 73 | 83 | 140 | 152 | 1970 | 4180 | 4680 | 5960 | 8180 |
| 2026-05-03 03:00 | 3.29 | 376 | 19400 (1983) | 71 (2000) | 2670 | 73 | 83 | 140 | 152 | 1970 | 4180 | 4680 | 5960 | 8180 |
| 2026-05-03 02:30 | 3.03 | 265 | 19400 (1983) | 71 (2000) | 2670 | 73 | 83 | 140 | 152 | 1970 | 4180 | 4680 | 5960 | 8180 |
| 2026-05-03 02:00 | 2.89 | 215 | 19400 (1983) | 71 (2000) | 2670 | 73 | 83 | 140 | 152 | 1970 | 4180 | 4680 | 5960 | 8180 |
| 2026-05-03 01:30 | 2.84 | 198 | 19400 (1983) | 71 (2000) | 2670 | 73 | 83 | 140 | 152 | 1970 | 4180 | 4680 | 5960 | 8180 |
| 2026-05-03 01:00 | 2.85 | 201 | 19400 (1983) | 71 (2000) | 2670 | 73 | 83 | 140 | 152 | 1970 | 4180 | 4680 | 5960 | 8180 |
| 2026-05-03 00:30 | 2.88 | 211 | 19400 (1983) | 71 (2000) | 2670 | 73 | 83 | 140 | 152 | 1970 | 4180 | 4680 | 5960 | 8180 |
| 2026-05-03 00:00 | 2.91 | 221 | 19400 (1983) | 71 (2000) | 2670 | 73 | 83 | 140 | 152 | 1970 | 4180 | 4680 | 5960 | 8180 |
| 2026-05-02 23:30 | 2.95 | 236 | 19400 (1983) | 71 (2000) | 2670 | 73 | 83 | 140 | 152 | 1970 | 4180 | 4680 | 5960 | 8180 |
| 2026-05-02 23:00 | 2.98 | 247 | 19400 (1983) | 71 (2000) | 2670 | 73 | 83 | 140 | 152 | 1970 | 4180 | 4680 | 5960 | 8180 |
| 2026-05-02 22:30 | 3.02 | 262 | 17300 (1983) | 68 (1989) | 2570 | 71 | 91 | 156 | 196 | 1280 | 3440 | 4630 | 6220 | 10100 |
| 2026-05-02 22:00 | 3.06 | 277 | 17300 (1983) | 68 (1989) | 2570 | 71 | 91 | 156 | 196 | 1280 | 3440 | 4630 | 6220 | 10100 |
| 2026-05-02 21:30 | 3.11 | 297 | 17300 (1983) | 68 (1989) | 2570 | 71 | 91 | 156 | 196 | 1280 | 3440 | 4630 | 6220 | 10100 |
| 2026-05-02 21:00 | 3.15 | 314 | 17300 (1983) | 68 (1989) | 2570 | 71 | 91 | 156 | 196 | 1280 | 3440 | 4630 | 6220 | 10100 |
| 2026-05-02 20:30 | 3.20 | 335 | 17300 (1983) | 68 (1989) | 2570 | 71 | 91 | 156 | 196 | 1280 | 3440 | 4630 | 6220 | 10100 |
| 2026-05-02 20:00 | 3.25 | 357 | 17300 (1983) | 68 (1989) | 2570 | 71 | 91 | 156 | 196 | 1280 | 3440 | 4630 | 6220 | 10100 |
| 2026-05-02 19:30 | 3.31 | 385 | 17300 (1983) | 68 (1989) | 2570 | 71 | 91 | 156 | 196 | 1280 | 3440 | 4630 | 6220 | 10100 |
| 2026-05-02 19:00 | 3.37 | 414 | 17300 (1983) | 68 (1989) | 2570 | 71 | 91 | 156 | 196 | 1280 | 3440 | 4630 | 6220 | 10100 |
| 2026-05-02 18:30 | 3.42 | 439 | 17300 (1983) | 68 (1989) | 2570 | 71 | 91 | 156 | 196 | 1280 | 3440 | 4630 | 6220 | 10100 |
| 2026-05-02 18:00 | 3.49 | 475 | 17300 (1983) | 68 (1989) | 2570 | 71 | 91 | 156 | 196 | 1280 | 3440 | 4630 | 6220 | 10100 |
| 2026-05-02 17:30 | 3.56 | 513 | 17300 (1983) | 68 (1989) | 2570 | 71 | 91 | 156 | 196 | 1280 | 3440 | 4630 | 6220 | 10100 |
| 2026-05-02 17:00 | 3.64 | 558 | 17300 (1983) | 68 (1989) | 2570 | 71 | 91 | 156 | 196 | 1280 | 3440 | 4630 | 6220 | 10100 |
| 2026-05-02 16:30 | 3.72 | 605 | 17300 (1983) | 68 (1989) | 2570 | 71 | 91 | 156 | 196 | 1280 | 3440 | 4630 | 6220 | 10100 |
| 2026-05-02 16:00 | 3.80 | 654 | 17300 (1983) | 68 (1989) | 2570 | 71 | 91 | 156 | 196 | 1280 | 3440 | 4630 | 6220 | 10100 |
| 2026-05-02 15:30 | 3.89 | 712 | 17300 (1983) | 68 (1989) | 2570 | 71 | 91 | 156 | 196 | 1280 | 3440 | 4630 | 6220 | 10100 |
| 2026-05-02 15:00 | 3.98 | 773 | 17300 (1983) | 68 (1989) | 2570 | 71 | 91 | 156 | 196 | 1280 | 3440 | 4630 | 6220 | 10100 |
| 2026-05-02 14:30 | 4.08 | 843 | 17300 (1983) | 68 (1989) | 2570 | 71 | 91 | 156 | 196 | 1280 | 3440 | 4630 | 6220 | 10100 |
| 2026-05-02 14:00 | 4.18 | 917 | 17300 (1983) | 68 (1989) | 2570 | 71 | 91 | 156 | 196 | 1280 | 3440 | 4630 | 6220 | 10100 |
| 2026-05-02 13:30 | 4.29 | 1000 | 17300 (1983) | 68 (1989) | 2570 | 71 | 91 | 156 | 196 | 1280 | 3440 | 4630 | 6220 | 10100 |
| 2026-05-02 13:00 | 4.40 | 1090 | 17300 (1983) | 68 (1989) | 2570 | 71 | 91 | 156 | 196 | 1280 | 3440 | 4630 | 6220 | 10100 |
| 2026-05-02 12:30 | 4.52 | 1200 | 17300 (1983) | 68 (1989) | 2570 | 71 | 91 | 156 | 196 | 1280 | 3440 | 4630 | 6220 | 10100 |
| 2026-05-02 12:00 | 4.65 | 1310 | 17300 (1983) | 68 (1989) | 2570 | 71 | 91 | 156 | 196 | 1280 | 3440 | 4630 | 6220 | 10100 |
| 2026-05-02 11:30 | 4.78 | 1430 | 17300 (1983) | 68 (1989) | 2570 | 71 | 91 | 156 | 196 | 1280 | 3440 | 4630 | 6220 | 10100 |
| 2026-05-02 11:00 | 4.93 | 1580 | 17300 (1983) | 68 (1989) | 2570 | 71 | 91 | 156 | 196 | 1280 | 3440 | 4630 | 6220 | 10100 |
| 2026-05-02 10:30 | 5.09 | 1750 | 17300 (1983) | 68 (1989) | 2570 | 71 | 91 | 156 | 196 | 1280 | 3440 | 4630 | 6220 | 10100 |
| 2026-05-02 10:00 | 5.25 | 1930 | 17300 (1983) | 68 (1989) | 2570 | 71 | 91 | 156 | 196 | 1280 | 3440 | 4630 | 6220 | 10100 |
| 2026-05-02 09:30 | 5.43 | 2140 | 17300 (1983) | 68 (1989) | 2570 | 71 | 91 | 156 | 196 | 1280 | 3440 | 4630 | 6220 | 10100 |
| 2026-05-02 09:00 | 5.60 | 2310 | 17300 (1983) | 68 (1989) | 2570 | 71 | 91 | 156 | 196 | 1280 | 3440 | 4630 | 6220 | 10100 |
| 2026-05-02 08:30 | 5.79 | 2500 | 17300 (1983) | 68 (1989) | 2570 | 71 | 91 | 156 | 196 | 1280 | 3440 | 4630 | 6220 | 10100 |
| 2026-05-02 08:00 | 5.98 | 2700 | 17300 (1983) | 68 (1989) | 2570 | 71 | 91 | 156 | 196 | 1280 | 3440 | 4630 | 6220 | 10100 |
| 2026-05-02 07:30 | 6.17 | 2910 | 17300 (1983) | 68 (1989) | 2570 | 71 | 91 | 156 | 196 | 1280 | 3440 | 4630 | 6220 | 10100 |
| 2026-05-02 07:00 | 6.33 | 3080 | 17300 (1983) | 68 (1989) | 2570 | 71 | 91 | 156 | 196 | 1280 | 3440 | 4630 | 6220 | 10100 |
| 2026-05-02 06:30 | 6.48 | 3260 | 17300 (1983) | 68 (1989) | 2570 | 71 | 91 | 156 | 196 | 1280 | 3440 | 4630 | 6220 | 10100 |
| 2026-05-02 06:00 | 6.60 | 3400 | 17300 (1983) | 68 (1989) | 2570 | 71 | 91 | 156 | 196 | 1280 | 3440 | 4630 | 6220 | 10100 |
| 2026-05-02 05:30 | 6.66 | 3470 | 17300 (1983) | 68 (1989) | 2570 | 71 | 91 | 156 | 196 | 1280 | 3440 | 4630 | 6220 | 10100 |
| 2026-05-02 05:00 | 6.72 | 3540 | 17300 (1983) | 68 (1989) | 2570 | 71 | 91 | 156 | 196 | 1280 | 3440 | 4630 | 6220 | 10100 |
| 2026-05-02 04:30 | 6.75 | 3580 | 17300 (1983) | 68 (1989) | 2570 | 71 | 91 | 156 | 196 | 1280 | 3440 | 4630 | 6220 | 10100 |
| 2026-05-02 04:00 | 6.76 | 3590 | 17300 (1983) | 68 (1989) | 2570 | 71 | 91 | 156 | 196 | 1280 | 3440 | 4630 | 6220 | 10100 |
| 2026-05-02 03:30 | 6.77 | 3600 | 17300 (1983) | 68 (1989) | 2570 | 71 | 91 | 156 | 196 | 1280 | 3440 | 4630 | 6220 | 10100 |
| 2026-05-02 03:00 | 6.78 | 3610 | 17300 (1983) | 68 (1989) | 2570 | 71 | 91 | 156 | 196 | 1280 | 3440 | 4630 | 6220 | 10100 |
| 2026-05-02 02:30 | 6.78 | 3610 | 17300 (1983) | 68 (1989) | 2570 | 71 | 91 | 156 | 196 | 1280 | 3440 | 4630 | 6220 | 10100 |
| 2026-05-02 02:00 | 6.79 | 3630 | 17300 (1983) | 68 (1989) | 2570 | 71 | 91 | 156 | 196 | 1280 | 3440 | 4630 | 6220 | 10100 |
| 2026-05-02 01:30 | 6.81 | 3650 | 17300 (1983) | 68 (1989) | 2570 | 71 | 91 | 156 | 196 | 1280 | 3440 | 4630 | 6220 | 10100 |
| 2026-05-02 01:00 | 6.80 | 3640 | 17300 (1983) | 68 (1989) | 2570 | 71 | 91 | 156 | 196 | 1280 | 3440 | 4630 | 6220 | 10100 |
| 2026-05-02 00:30 | 6.78 | 3610 | 17300 (1983) | 68 (1989) | 2570 | 71 | 91 | 156 | 196 | 1280 | 3440 | 4630 | 6220 | 10100 |
| 2026-05-02 00:00 | 6.76 | 3590 | 17300 (1983) | 68 (1989) | 2570 | 71 | 91 | 156 | 196 | 1280 | 3440 | 4630 | 6220 | 10100 |
| 2026-05-01 23:30 | 6.75 | 3580 | 17300 (1983) | 68 (1989) | 2570 | 71 | 91 | 156 | 196 | 1280 | 3440 | 4630 | 6220 | 10100 |
| 2026-05-01 23:00 | 6.75 | 3580 | 17300 (1983) | 68 (1989) | 2570 | 71 | 91 | 156 | 196 | 1280 | 3440 | 4630 | 6220 | 10100 |
| 2026-05-01 22:30 | 6.74 | 3560 | 11600 (2013) | 73 (2000) | 2380 | 76 | 115 | 171 | 200 | 1320 | 3210 | 4070 | 8090 | 9990 |
| 2026-05-01 22:00 | 6.74 | 3560 | 11600 (2013) | 73 (2000) | 2380 | 76 | 115 | 171 | 200 | 1320 | 3210 | 4070 | 8090 | 9990 |
| 2026-05-01 21:30 | 6.72 | 3540 | 11600 (2013) | 73 (2000) | 2380 | 76 | 115 | 171 | 200 | 1320 | 3210 | 4070 | 8090 | 9990 |
| 2026-05-01 21:00 | 6.71 | 3530 | 11600 (2013) | 73 (2000) | 2380 | 76 | 115 | 171 | 200 | 1320 | 3210 | 4070 | 8090 | 9990 |
| 2026-05-01 20:30 | 6.69 | 3500 | 11600 (2013) | 73 (2000) | 2380 | 76 | 115 | 171 | 200 | 1320 | 3210 | 4070 | 8090 | 9990 |
| 2026-05-01 20:00 | 6.70 | 3520 | 11600 (2013) | 73 (2000) | 2380 | 76 | 115 | 171 | 200 | 1320 | 3210 | 4070 | 8090 | 9990 |
| 2026-05-01 19:30 | 6.67 | 3480 | 11600 (2013) | 73 (2000) | 2380 | 76 | 115 | 171 | 200 | 1320 | 3210 | 4070 | 8090 | 9990 |
| 2026-05-01 19:00 | 6.65 | 3460 | 11600 (2013) | 73 (2000) | 2380 | 76 | 115 | 171 | 200 | 1320 | 3210 | 4070 | 8090 | 9990 |
| 2026-05-01 18:30 | 6.64 | 3440 | 11600 (2013) | 73 (2000) | 2380 | 76 | 115 | 171 | 200 | 1320 | 3210 | 4070 | 8090 | 9990 |
| 2026-05-01 18:00 | 6.62 | 3420 | 11600 (2013) | 73 (2000) | 2380 | 76 | 115 | 171 | 200 | 1320 | 3210 | 4070 | 8090 | 9990 |
| 2026-05-01 17:30 | 6.62 | 3420 | 11600 (2013) | 73 (2000) | 2380 | 76 | 115 | 171 | 200 | 1320 | 3210 | 4070 | 8090 | 9990 |
| 2026-05-01 17:00 | 6.58 | 3370 | 11600 (2013) | 73 (2000) | 2380 | 76 | 115 | 171 | 200 | 1320 | 3210 | 4070 | 8090 | 9990 |
| 2026-05-01 16:30 | 6.57 | 3360 | 11600 (2013) | 73 (2000) | 2380 | 76 | 115 | 171 | 200 | 1320 | 3210 | 4070 | 8090 | 9990 |
| 2026-05-01 16:00 | 6.54 | 3330 | 11600 (2013) | 73 (2000) | 2380 | 76 | 115 | 171 | 200 | 1320 | 3210 | 4070 | 8090 | 9990 |
| 2026-05-01 15:30 | 6.53 | 3320 | 11600 (2013) | 73 (2000) | 2380 | 76 | 115 | 171 | 200 | 1320 | 3210 | 4070 | 8090 | 9990 |
| 2026-05-01 15:00 | 6.51 | 3290 | 11600 (2013) | 73 (2000) | 2380 | 76 | 115 | 171 | 200 | 1320 | 3210 | 4070 | 8090 | 9990 |
| 2026-05-01 14:30 | 6.48 | 3260 | 11600 (2013) | 73 (2000) | 2380 | 76 | 115 | 171 | 200 | 1320 | 3210 | 4070 | 8090 | 9990 |
| 2026-05-01 14:00 | 6.47 | 3250 | 11600 (2013) | 73 (2000) | 2380 | 76 | 115 | 171 | 200 | 1320 | 3210 | 4070 | 8090 | 9990 |
| 2026-05-01 13:30 | 6.45 | 3220 | 11600 (2013) | 73 (2000) | 2380 | 76 | 115 | 171 | 200 | 1320 | 3210 | 4070 | 8090 | 9990 |
| 2026-05-01 13:00 | 6.43 | 3200 | 11600 (2013) | 73 (2000) | 2380 | 76 | 115 | 171 | 200 | 1320 | 3210 | 4070 | 8090 | 9990 |
| 2026-05-01 12:30 | 6.40 | 3160 | 11600 (2013) | 73 (2000) | 2380 | 76 | 115 | 171 | 200 | 1320 | 3210 | 4070 | 8090 | 9990 |
| 2026-05-01 12:00 | 6.42 | 3190 | 11600 (2013) | 73 (2000) | 2380 | 76 | 115 | 171 | 200 | 1320 | 3210 | 4070 | 8090 | 9990 |
| 2026-05-01 11:30 | 6.43 | 3200 | 11600 (2013) | 73 (2000) | 2380 | 76 | 115 | 171 | 200 | 1320 | 3210 | 4070 | 8090 | 9990 |
| 2026-05-01 11:00 | 6.44 | 3210 | 11600 (2013) | 73 (2000) | 2380 | 76 | 115 | 171 | 200 | 1320 | 3210 | 4070 | 8090 | 9990 |
| 2026-05-01 10:30 | 6.47 | 3250 | 11600 (2013) | 73 (2000) | 2380 | 76 | 115 | 171 | 200 | 1320 | 3210 | 4070 | 8090 | 9990 |
| 2026-05-01 10:00 | 6.48 | 3260 | 11600 (2013) | 73 (2000) | 2380 | 76 | 115 | 171 | 200 | 1320 | 3210 | 4070 | 8090 | 9990 |
| 2026-05-01 09:30 | 6.52 | 3300 | 11600 (2013) | 73 (2000) | 2380 | 76 | 115 | 171 | 200 | 1320 | 3210 | 4070 | 8090 | 9990 |
| 2026-05-01 09:00 | 6.55 | 3340 | 11600 (2013) | 73 (2000) | 2380 | 76 | 115 | 171 | 200 | 1320 | 3210 | 4070 | 8090 | 9990 |
| 2026-05-01 08:30 | 6.57 | 3360 | 11600 (2013) | 73 (2000) | 2380 | 76 | 115 | 171 | 200 | 1320 | 3210 | 4070 | 8090 | 9990 |
| 2026-05-01 08:00 | 6.57 | 3360 | 11600 (2013) | 73 (2000) | 2380 | 76 | 115 | 171 | 200 | 1320 | 3210 | 4070 | 8090 | 9990 |
| 2026-05-01 07:30 | 6.61 | 3410 | 11600 (2013) | 73 (2000) | 2380 | 76 | 115 | 171 | 200 | 1320 | 3210 | 4070 | 8090 | 9990 |
| 2026-05-01 07:00 | 6.63 | 3430 | 11600 (2013) | 73 (2000) | 2380 | 76 | 115 | 171 | 200 | 1320 | 3210 | 4070 | 8090 | 9990 |
| 2026-05-01 06:30 | 6.64 | 3440 | 11600 (2013) | 73 (2000) | 2380 | 76 | 115 | 171 | 200 | 1320 | 3210 | 4070 | 8090 | 9990 |
| 2026-05-01 06:00 | 6.66 | 3470 | 11600 (2013) | 73 (2000) | 2380 | 76 | 115 | 171 | 200 | 1320 | 3210 | 4070 | 8090 | 9990 |
| 2026-05-01 05:30 | 6.67 | 3480 | 11600 (2013) | 73 (2000) | 2380 | 76 | 115 | 171 | 200 | 1320 | 3210 | 4070 | 8090 | 9990 |
| 2026-05-01 05:00 | 6.68 | 3490 | 11600 (2013) | 73 (2000) | 2380 | 76 | 115 | 171 | 200 | 1320 | 3210 | 4070 | 8090 | 9990 |
| 2026-05-01 04:30 | 6.70 | 3520 | 11600 (2013) | 73 (2000) | 2380 | 76 | 115 | 171 | 200 | 1320 | 3210 | 4070 | 8090 | 9990 |
| 2026-05-01 04:00 | 6.68 | 3490 | 11600 (2013) | 73 (2000) | 2380 | 76 | 115 | 171 | 200 | 1320 | 3210 | 4070 | 8090 | 9990 |
| 2026-05-01 03:30 | 6.71 | 3530 | 11600 (2013) | 73 (2000) | 2380 | 76 | 115 | 171 | 200 | 1320 | 3210 | 4070 | 8090 | 9990 |
| 2026-05-01 03:00 | 6.69 | 3500 | 11600 (2013) | 73 (2000) | 2380 | 76 | 115 | 171 | 200 | 1320 | 3210 | 4070 | 8090 | 9990 |
| 2026-05-01 02:30 | 6.68 | 3490 | 11600 (2013) | 73 (2000) | 2380 | 76 | 115 | 171 | 200 | 1320 | 3210 | 4070 | 8090 | 9990 |
| 2026-05-01 02:00 | 6.65 | 3460 | 11600 (2013) | 73 (2000) | 2380 | 76 | 115 | 171 | 200 | 1320 | 3210 | 4070 | 8090 | 9990 |
| 2026-05-01 01:30 | 6.63 | 3430 | 11600 (2013) | 73 (2000) | 2380 | 76 | 115 | 171 | 200 | 1320 | 3210 | 4070 | 8090 | 9990 |
| 2026-05-01 01:00 | 6.60 | 3400 | 11600 (2013) | 73 (2000) | 2380 | 76 | 115 | 171 | 200 | 1320 | 3210 | 4070 | 8090 | 9990 |
| 2026-05-01 00:30 | 6.60 | 3400 | 11600 (2013) | 73 (2000) | 2380 | 76 | 115 | 171 | 200 | 1320 | 3210 | 4070 | 8090 | 9990 |
| 2026-05-01 00:00 | 6.56 | 3350 | 11600 (2013) | 73 (2000) | 2380 | 76 | 115 | 171 | 200 | 1320 | 3210 | 4070 | 8090 | 9990 |
| 2026-04-30 23:30 | 6.55 | 3340 | 11600 (2013) | 73 (2000) | 2380 | 76 | 115 | 171 | 200 | 1320 | 3210 | 4070 | 8090 | 9990 |
| 2026-04-30 23:00 | 6.51 | 3290 | 11600 (2013) | 73 (2000) | 2380 | 76 | 115 | 171 | 200 | 1320 | 3210 | 4070 | 8090 | 9990 |
| 2026-04-30 22:30 | 6.47 | 3250 | 11600 (2013) | 72 (2000) | 2690 | 78 | 102 | 178 | 316 | 1920 | 3830 | 4050 | 7040 | 9800 |
| 2026-04-30 22:00 | 6.45 | 3220 | 11600 (2013) | 72 (2000) | 2690 | 78 | 102 | 178 | 316 | 1920 | 3830 | 4050 | 7040 | 9800 |
| 2026-04-30 21:30 | 6.42 | 3190 | 11600 (2013) | 72 (2000) | 2690 | 78 | 102 | 178 | 316 | 1920 | 3830 | 4050 | 7040 | 9800 |
| 2026-04-30 21:00 | 6.37 | 3130 | 11600 (2013) | 72 (2000) | 2690 | 78 | 102 | 178 | 316 | 1920 | 3830 | 4050 | 7040 | 9800 |
| 2026-04-30 20:30 | 6.34 | 3100 | 11600 (2013) | 72 (2000) | 2690 | 78 | 102 | 178 | 316 | 1920 | 3830 | 4050 | 7040 | 9800 |
| 2026-04-30 20:00 | 6.28 | 3030 | 11600 (2013) | 72 (2000) | 2690 | 78 | 102 | 178 | 316 | 1920 | 3830 | 4050 | 7040 | 9800 |
| 2026-04-30 19:30 | 6.22 | 2960 | 11600 (2013) | 72 (2000) | 2690 | 78 | 102 | 178 | 316 | 1920 | 3830 | 4050 | 7040 | 9800 |
| 2026-04-30 19:00 | 6.17 | 2910 | 11600 (2013) | 72 (2000) | 2690 | 78 | 102 | 178 | 316 | 1920 | 3830 | 4050 | 7040 | 9800 |
| 2026-04-30 18:30 | 6.08 | 2810 | 11600 (2013) | 72 (2000) | 2690 | 78 | 102 | 178 | 316 | 1920 | 3830 | 4050 | 7040 | 9800 |
| 2026-04-30 18:00 | 5.99 | 2710 | 11600 (2013) | 72 (2000) | 2690 | 78 | 102 | 178 | 316 | 1920 | 3830 | 4050 | 7040 | 9800 |
| 2026-04-30 17:30 | 5.89 | 2600 | 11600 (2013) | 72 (2000) | 2690 | 78 | 102 | 178 | 316 | 1920 | 3830 | 4050 | 7040 | 9800 |
| 2026-04-30 17:00 | 5.80 | 2510 | 11600 (2013) | 72 (2000) | 2690 | 78 | 102 | 178 | 316 | 1920 | 3830 | 4050 | 7040 | 9800 |
| 2026-04-30 16:30 | 5.72 | 2430 | 11600 (2013) | 72 (2000) | 2690 | 78 | 102 | 178 | 316 | 1920 | 3830 | 4050 | 7040 | 9800 |
| 2026-04-30 16:00 | 5.65 | 2360 | 11600 (2013) | 72 (2000) | 2690 | 78 | 102 | 178 | 316 | 1920 | 3830 | 4050 | 7040 | 9800 |
| 2026-04-30 15:30 | 5.62 | 2330 | 11600 (2013) | 72 (2000) | 2690 | 78 | 102 | 178 | 316 | 1920 | 3830 | 4050 | 7040 | 9800 |
| 2026-04-30 15:00 | 5.63 | 2340 | 11600 (2013) | 72 (2000) | 2690 | 78 | 102 | 178 | 316 | 1920 | 3830 | 4050 | 7040 | 9800 |
| 2026-04-30 14:30 | 5.66 | 2370 | 11600 (2013) | 72 (2000) | 2690 | 78 | 102 | 178 | 316 | 1920 | 3830 | 4050 | 7040 | 9800 |
| 2026-04-30 14:00 | 5.72 | 2430 | 11600 (2013) | 72 (2000) | 2690 | 78 | 102 | 178 | 316 | 1920 | 3830 | 4050 | 7040 | 9800 |
| 2026-04-30 13:30 | 5.78 | 2490 | 11600 (2013) | 72 (2000) | 2690 | 78 | 102 | 178 | 316 | 1920 | 3830 | 4050 | 7040 | 9800 |
| 2026-04-30 13:00 | 5.80 | 2510 | 11600 (2013) | 72 (2000) | 2690 | 78 | 102 | 178 | 316 | 1920 | 3830 | 4050 | 7040 | 9800 |
| 2026-04-30 12:30 | 5.85 | 2560 | 11600 (2013) | 72 (2000) | 2690 | 78 | 102 | 178 | 316 | 1920 | 3830 | 4050 | 7040 | 9800 |
| 2026-04-30 12:00 | 5.87 | 2580 | 11600 (2013) | 72 (2000) | 2690 | 78 | 102 | 178 | 316 | 1920 | 3830 | 4050 | 7040 | 9800 |
| 2026-04-30 11:30 | 5.90 | 2610 | 11600 (2013) | 72 (2000) | 2690 | 78 | 102 | 178 | 316 | 1920 | 3830 | 4050 | 7040 | 9800 |
| 2026-04-30 11:00 | 5.91 | 2620 | 11600 (2013) | 72 (2000) | 2690 | 78 | 102 | 178 | 316 | 1920 | 3830 | 4050 | 7040 | 9800 |
| 2026-04-30 10:30 | 5.93 | 2650 | 11600 (2013) | 72 (2000) | 2690 | 78 | 102 | 178 | 316 | 1920 | 3830 | 4050 | 7040 | 9800 |
| 2026-04-30 10:00 | 5.97 | 2690 | 11600 (2013) | 72 (2000) | 2690 | 78 | 102 | 178 | 316 | 1920 | 3830 | 4050 | 7040 | 9800 |
| 2026-04-30 09:30 | 6.00 | 2720 | 11600 (2013) | 72 (2000) | 2690 | 78 | 102 | 178 | 316 | 1920 | 3830 | 4050 | 7040 | 9800 |
| 2026-04-30 09:00 | 6.01 | 2730 | 11600 (2013) | 72 (2000) | 2690 | 78 | 102 | 178 | 316 | 1920 | 3830 | 4050 | 7040 | 9800 |
| 2026-04-30 08:30 | 6.04 | 2760 | 11600 (2013) | 72 (2000) | 2690 | 78 | 102 | 178 | 316 | 1920 | 3830 | 4050 | 7040 | 9800 |
| 2026-04-30 08:00 | 6.08 | 2810 | 11600 (2013) | 72 (2000) | 2690 | 78 | 102 | 178 | 316 | 1920 | 3830 | 4050 | 7040 | 9800 |
| 2026-04-30 07:30 | 6.12 | 2850 | 11600 (2013) | 72 (2000) | 2690 | 78 | 102 | 178 | 316 | 1920 | 3830 | 4050 | 7040 | 9800 |
| 2026-04-30 07:00 | 6.17 | 2910 | 11600 (2013) | 72 (2000) | 2690 | 78 | 102 | 178 | 316 | 1920 | 3830 | 4050 | 7040 | 9800 |
| 2026-04-30 06:30 | 6.24 | 2980 | 11600 (2013) | 72 (2000) | 2690 | 78 | 102 | 178 | 316 | 1920 | 3830 | 4050 | 7040 | 9800 |
| 2026-04-30 06:00 | 6.31 | 3060 | 11600 (2013) | 72 (2000) | 2690 | 78 | 102 | 178 | 316 | 1920 | 3830 | 4050 | 7040 | 9800 |
| 2026-04-30 05:30 | 6.40 | 3160 | 11600 (2013) | 72 (2000) | 2690 | 78 | 102 | 178 | 316 | 1920 | 3830 | 4050 | 7040 | 9800 |
| 2026-04-30 05:00 | 6.49 | 3270 | 11600 (2013) | 72 (2000) | 2690 | 78 | 102 | 178 | 316 | 1920 | 3830 | 4050 | 7040 | 9800 |
| 2026-04-30 04:30 | 6.60 | 3400 | 11600 (2013) | 72 (2000) | 2690 | 78 | 102 | 178 | 316 | 1920 | 3830 | 4050 | 7040 | 9800 |
| 2026-04-30 04:00 | 6.72 | 3540 | 11600 (2013) | 72 (2000) | 2690 | 78 | 102 | 178 | 316 | 1920 | 3830 | 4050 | 7040 | 9800 |
| 2026-04-30 03:30 | 6.87 | 3720 | 11600 (2013) | 72 (2000) | 2690 | 78 | 102 | 178 | 316 | 1920 | 3830 | 4050 | 7040 | 9800 |
| 2026-04-30 03:00 | 6.98 | 3860 | 11600 (2013) | 72 (2000) | 2690 | 78 | 102 | 178 | 316 | 1920 | 3830 | 4050 | 7040 | 9800 |
| 2026-04-30 02:30 | 7.13 | 4050 | 11600 (2013) | 72 (2000) | 2690 | 78 | 102 | 178 | 316 | 1920 | 3830 | 4050 | 7040 | 9800 |
| 2026-04-30 02:00 | 7.27 | 4230 | 11600 (2013) | 72 (2000) | 2690 | 78 | 102 | 178 | 316 | 1920 | 3830 | 4050 | 7040 | 9800 |
| 2026-04-30 01:30 | 7.36 | 4350 | 11600 (2013) | 72 (2000) | 2690 | 78 | 102 | 178 | 316 | 1920 | 3830 | 4050 | 7040 | 9800 |
| 2026-04-30 01:00 | 7.45 | 4460 | 11600 (2013) | 72 (2000) | 2690 | 78 | 102 | 178 | 316 | 1920 | 3830 | 4050 | 7040 | 9800 |
| 2026-04-30 00:30 | 7.47 | 4480 | 11600 (2013) | 72 (2000) | 2690 | 78 | 102 | 178 | 316 | 1920 | 3830 | 4050 | 7040 | 9800 |
| 2026-04-30 00:00 | 7.43 | 4430 | 11600 (2013) | 72 (2000) | 2690 | 78 | 102 | 178 | 316 | 1920 | 3830 | 4050 | 7040 | 9800 |
| 2026-04-29 23:30 | 7.31 | 4280 | 11600 (2013) | 72 (2000) | 2690 | 78 | 102 | 178 | 316 | 1920 | 3830 | 4050 | 7040 | 9800 |
| 2026-04-29 23:00 | 7.06 | 3960 | 11600 (2013) | 72 (2000) | 2690 | 78 | 102 | 178 | 316 | 1920 | 3830 | 4050 | 7040 | 9800 |
| 2026-04-29 22:30 | 6.80 | 3640 | 8880 (2013) | 67 (1989) | 2310 | 77 | 90 | 144 | 191 | 1760 | 3760 | 4450 | 5440 | 8100 |
| 2026-04-29 22:00 | 6.50 | 3280 | 8880 (2013) | 67 (1989) | 2310 | 77 | 90 | 144 | 191 | 1760 | 3760 | 4450 | 5440 | 8100 |
| 2026-04-29 21:30 | 6.24 | 2980 | 8880 (2013) | 67 (1989) | 2310 | 77 | 90 | 144 | 191 | 1760 | 3760 | 4450 | 5440 | 8100 |
| 2026-04-29 21:00 | 6.08 | 2810 | 8880 (2013) | 67 (1989) | 2310 | 77 | 90 | 144 | 191 | 1760 | 3760 | 4450 | 5440 | 8100 |
| 2026-04-29 20:30 | 5.99 | 2710 | 8880 (2013) | 67 (1989) | 2310 | 77 | 90 | 144 | 191 | 1760 | 3760 | 4450 | 5440 | 8100 |
| 2026-04-29 20:00 | 5.96 | 2680 | 8880 (2013) | 67 (1989) | 2310 | 77 | 90 | 144 | 191 | 1760 | 3760 | 4450 | 5440 | 8100 |
| 2026-04-29 19:30 | 5.95 | 2670 | 8880 (2013) | 67 (1989) | 2310 | 77 | 90 | 144 | 191 | 1760 | 3760 | 4450 | 5440 | 8100 |
| 2026-04-29 19:00 | 5.92 | 2630 | 8880 (2013) | 67 (1989) | 2310 | 77 | 90 | 144 | 191 | 1760 | 3760 | 4450 | 5440 | 8100 |
| 2026-04-29 18:30 | 5.89 | 2600 | 8880 (2013) | 67 (1989) | 2310 | 77 | 90 | 144 | 191 | 1760 | 3760 | 4450 | 5440 | 8100 |
| 2026-04-29 18:00 | 5.85 | 2560 | 8880 (2013) | 67 (1989) | 2310 | 77 | 90 | 144 | 191 | 1760 | 3760 | 4450 | 5440 | 8100 |
| 2026-04-29 17:30 | 5.83 | 2540 | 8880 (2013) | 67 (1989) | 2310 | 77 | 90 | 144 | 191 | 1760 | 3760 | 4450 | 5440 | 8100 |
| 2026-04-29 17:00 | 5.79 | 2500 | 8880 (2013) | 67 (1989) | 2310 | 77 | 90 | 144 | 191 | 1760 | 3760 | 4450 | 5440 | 8100 |
| 2026-04-29 16:30 | 5.74 | 2450 | 8880 (2013) | 67 (1989) | 2310 | 77 | 90 | 144 | 191 | 1760 | 3760 | 4450 | 5440 | 8100 |
| 2026-04-29 16:00 | 5.68 | 2390 | 8880 (2013) | 67 (1989) | 2310 | 77 | 90 | 144 | 191 | 1760 | 3760 | 4450 | 5440 | 8100 |
| 2026-04-29 15:30 | 5.63 | 2340 | 8880 (2013) | 67 (1989) | 2310 | 77 | 90 | 144 | 191 | 1760 | 3760 | 4450 | 5440 | 8100 |
| 2026-04-29 15:00 | 5.56 | 2270 | 8880 (2013) | 67 (1989) | 2310 | 77 | 90 | 144 | 191 | 1760 | 3760 | 4450 | 5440 | 8100 |
| 2026-04-29 14:30 | 5.48 | 2190 | 8880 (2013) | 67 (1989) | 2310 | 77 | 90 | 144 | 191 | 1760 | 3760 | 4450 | 5440 | 8100 |
| 2026-04-29 14:00 | 5.43 | 2140 | 8880 (2013) | 67 (1989) | 2310 | 77 | 90 | 144 | 191 | 1760 | 3760 | 4450 | 5440 | 8100 |
| 2026-04-29 13:30 | 5.37 | 2070 | 8880 (2013) | 67 (1989) | 2310 | 77 | 90 | 144 | 191 | 1760 | 3760 | 4450 | 5440 | 8100 |
| 2026-04-29 13:00 | 5.33 | 2020 | 8880 (2013) | 67 (1989) | 2310 | 77 | 90 | 144 | 191 | 1760 | 3760 | 4450 | 5440 | 8100 |
| 2026-04-29 12:30 | 5.29 | 1980 | 8880 (2013) | 67 (1989) | 2310 | 77 | 90 | 144 | 191 | 1760 | 3760 | 4450 | 5440 | 8100 |
| 2026-04-29 12:00 | 5.30 | 1990 | 8880 (2013) | 67 (1989) | 2310 | 77 | 90 | 144 | 191 | 1760 | 3760 | 4450 | 5440 | 8100 |
| 2026-04-29 11:30 | 5.30 | 1990 | 8880 (2013) | 67 (1989) | 2310 | 77 | 90 | 144 | 191 | 1760 | 3760 | 4450 | 5440 | 8100 |
| 2026-04-29 11:00 | 5.31 | 2000 | 8880 (2013) | 67 (1989) | 2310 | 77 | 90 | 144 | 191 | 1760 | 3760 | 4450 | 5440 | 8100 |
| 2026-04-29 10:30 | 5.34 | 2270 | 8880 (2013) | 67 (1989) | 2310 | 77 | 90 | 144 | 191 | 1760 | 3760 | 4450 | 5440 | 8100 |
| 2026-04-29 10:00 | 5.36 | 2290 | 8880 (2013) | 67 (1989) | 2310 | 77 | 90 | 144 | 191 | 1760 | 3760 | 4450 | 5440 | 8100 |
| 2026-04-29 09:30 | 5.37 | 2300 | 8880 (2013) | 67 (1989) | 2310 | 77 | 90 | 144 | 191 | 1760 | 3760 | 4450 | 5440 | 8100 |
| 2026-04-29 09:00 | 5.40 | 2330 | 8880 (2013) | 67 (1989) | 2310 | 77 | 90 | 144 | 191 | 1760 | 3760 | 4450 | 5440 | 8100 |
| 2026-04-29 08:30 | 5.44 | 2370 | 8880 (2013) | 67 (1989) | 2310 | 77 | 90 | 144 | 191 | 1760 | 3760 | 4450 | 5440 | 8100 |
| 2026-04-29 08:00 | 5.47 | 2400 | 8880 (2013) | 67 (1989) | 2310 | 77 | 90 | 144 | 191 | 1760 | 3760 | 4450 | 5440 | 8100 |
| 2026-04-29 07:30 | 5.51 | 2430 | 8880 (2013) | 67 (1989) | 2310 | 77 | 90 | 144 | 191 | 1760 | 3760 | 4450 | 5440 | 8100 |
| 2026-04-29 07:00 | 5.56 | 2480 | 8880 (2013) | 67 (1989) | 2310 | 77 | 90 | 144 | 191 | 1760 | 3760 | 4450 | 5440 | 8100 |
| 2026-04-29 06:30 | 5.61 | 2530 | 8880 (2013) | 67 (1989) | 2310 | 77 | 90 | 144 | 191 | 1760 | 3760 | 4450 | 5440 | 8100 |
| 2026-04-29 06:00 | 5.69 | 2610 | 8880 (2013) | 67 (1989) | 2310 | 77 | 90 | 144 | 191 | 1760 | 3760 | 4450 | 5440 | 8100 |
| 2026-04-29 05:30 | 5.76 | 2680 | 8880 (2013) | 67 (1989) | 2310 | 77 | 90 | 144 | 191 | 1760 | 3760 | 4450 | 5440 | 8100 |
| 2026-04-29 05:00 | 5.87 | 2790 | 8880 (2013) | 67 (1989) | 2310 | 77 | 90 | 144 | 191 | 1760 | 3760 | 4450 | 5440 | 8100 |
| 2026-04-29 04:30 | 5.96 | 2880 | 8880 (2013) | 67 (1989) | 2310 | 77 | 90 | 144 | 191 | 1760 | 3760 | 4450 | 5440 | 8100 |
| 2026-04-29 04:00 | 6.08 | 3010 | 8880 (2013) | 67 (1989) | 2310 | 77 | 90 | 144 | 191 | 1760 | 3760 | 4450 | 5440 | 8100 |
| 2026-04-29 03:30 | 6.22 | 3160 | 8880 (2013) | 67 (1989) | 2310 | 77 | 90 | 144 | 191 | 1760 | 3760 | 4450 | 5440 | 8100 |
| 2026-04-29 03:00 | 6.34 | 3290 | 8880 (2013) | 67 (1989) | 2310 | 77 | 90 | 144 | 191 | 1760 | 3760 | 4450 | 5440 | 8100 |
| 2026-04-29 02:30 | 6.46 | 3420 | 8880 (2013) | 67 (1989) | 2310 | 77 | 90 | 144 | 191 | 1760 | 3760 | 4450 | 5440 | 8100 |
| 2026-04-29 02:00 | 6.58 | 3550 | 8880 (2013) | 67 (1989) | 2310 | 77 | 90 | 144 | 191 | 1760 | 3760 | 4450 | 5440 | 8100 |
| 2026-04-29 01:30 | 6.66 | 3650 | 8880 (2013) | 67 (1989) | 2310 | 77 | 90 | 144 | 191 | 1760 | 3760 | 4450 | 5440 | 8100 |
| 2026-04-29 01:00 | 6.70 | 3690 | 8880 (2013) | 67 (1989) | 2310 | 77 | 90 | 144 | 191 | 1760 | 3760 | 4450 | 5440 | 8100 |
| 2026-04-29 00:30 | 6.69 | 3680 | 8880 (2013) | 67 (1989) | 2310 | 77 | 90 | 144 | 191 | 1760 | 3760 | 4450 | 5440 | 8100 |
| 2026-04-29 00:00 | 6.57 | 3540 | 8880 (2013) | 67 (1989) | 2310 | 77 | 90 | 144 | 191 | 1760 | 3760 | 4450 | 5440 | 8100 |
| 2026-04-28 23:30 | 6.38 | 3330 | 8880 (2013) | 67 (1989) | 2310 | 77 | 90 | 144 | 191 | 1760 | 3760 | 4450 | 5440 | 8100 |
| 2026-04-28 23:00 | 6.07 | 3000 | 8880 (2013) | 67 (1989) | 2310 | 77 | 90 | 144 | 191 | 1760 | 3760 | 4450 | 5440 | 8100 |
| 2026-04-28 22:30 | 5.74 | 2660 | 8260 (2013) | 69 (2006) | 2160 | 76 | 93 | 173 | 218 | 1350 | 3810 | 4080 | 7050 | 7770 |
| 2026-04-28 22:00 | 5.50 | 2430 | 8260 (2013) | 69 (2006) | 2160 | 76 | 93 | 173 | 218 | 1350 | 3810 | 4080 | 7050 | 7770 |
| 2026-04-28 21:30 | 5.40 | 2330 | 8260 (2013) | 69 (2006) | 2160 | 76 | 93 | 173 | 218 | 1350 | 3810 | 4080 | 7050 | 7770 |
| 2026-04-28 21:00 | 5.37 | 2300 | 8260 (2013) | 69 (2006) | 2160 | 76 | 93 | 173 | 218 | 1350 | 3810 | 4080 | 7050 | 7770 |
| 2026-04-28 20:30 | 5.37 | 2300 | 8260 (2013) | 69 (2006) | 2160 | 76 | 93 | 173 | 218 | 1350 | 3810 | 4080 | 7050 | 7770 |
| 2026-04-28 20:00 | 5.37 | 2300 | 8260 (2013) | 69 (2006) | 2160 | 76 | 93 | 173 | 218 | 1350 | 3810 | 4080 | 7050 | 7770 |
| 2026-04-28 19:30 | 5.38 | 2310 | 8260 (2013) | 69 (2006) | 2160 | 76 | 93 | 173 | 218 | 1350 | 3810 | 4080 | 7050 | 7770 |
| 2026-04-28 19:00 | 5.38 | 2310 | 8260 (2013) | 69 (2006) | 2160 | 76 | 93 | 173 | 218 | 1350 | 3810 | 4080 | 7050 | 7770 |
| 2026-04-28 18:30 | 5.40 | 2330 | 8260 (2013) | 69 (2006) | 2160 | 76 | 93 | 173 | 218 | 1350 | 3810 | 4080 | 7050 | 7770 |
| 2026-04-28 18:00 | 5.43 | 2360 | 8260 (2013) | 69 (2006) | 2160 | 76 | 93 | 173 | 218 | 1350 | 3810 | 4080 | 7050 | 7770 |
| 2026-04-28 17:30 | 5.44 | 2370 | 8260 (2013) | 69 (2006) | 2160 | 76 | 93 | 173 | 218 | 1350 | 3810 | 4080 | 7050 | 7770 |
| 2026-04-28 17:00 | 5.46 | 2390 | 8260 (2013) | 69 (2006) | 2160 | 76 | 93 | 173 | 218 | 1350 | 3810 | 4080 | 7050 | 7770 |
| 2026-04-28 16:30 | 5.48 | 2410 | 8260 (2013) | 69 (2006) | 2160 | 76 | 93 | 173 | 218 | 1350 | 3810 | 4080 | 7050 | 7770 |
| 2026-04-28 16:00 | 5.51 | 2430 | 8260 (2013) | 69 (2006) | 2160 | 76 | 93 | 173 | 218 | 1350 | 3810 | 4080 | 7050 | 7770 |
| 2026-04-28 15:30 | 5.53 | 2450 | 8260 (2013) | 69 (2006) | 2160 | 76 | 93 | 173 | 218 | 1350 | 3810 | 4080 | 7050 | 7770 |
| 2026-04-28 15:00 | 5.55 | 2470 | 8260 (2013) | 69 (2006) | 2160 | 76 | 93 | 173 | 218 | 1350 | 3810 | 4080 | 7050 | 7770 |
| 2026-04-28 14:30 | 5.58 | 2500 | 8260 (2013) | 69 (2006) | 2160 | 76 | 93 | 173 | 218 | 1350 | 3810 | 4080 | 7050 | 7770 |
| 2026-04-28 14:00 | 5.60 | 2520 | 8260 (2013) | 69 (2006) | 2160 | 76 | 93 | 173 | 218 | 1350 | 3810 | 4080 | 7050 | 7770 |
| 2026-04-28 13:30 | 5.63 | 2550 | 8260 (2013) | 69 (2006) | 2160 | 76 | 93 | 173 | 218 | 1350 | 3810 | 4080 | 7050 | 7770 |
| 2026-04-28 13:00 | 5.67 | 2590 | 8260 (2013) | 69 (2006) | 2160 | 76 | 93 | 173 | 218 | 1350 | 3810 | 4080 | 7050 | 7770 |
| 2026-04-28 12:30 | 5.70 | 2620 | 8260 (2013) | 69 (2006) | 2160 | 76 | 93 | 173 | 218 | 1350 | 3810 | 4080 | 7050 | 7770 |
| 2026-04-28 12:00 | 5.73 | 2650 | 8260 (2013) | 69 (2006) | 2160 | 76 | 93 | 173 | 218 | 1350 | 3810 | 4080 | 7050 | 7770 |
| 2026-04-28 11:30 | 5.78 | 2700 | 8260 (2013) | 69 (2006) | 2160 | 76 | 93 | 173 | 218 | 1350 | 3810 | 4080 | 7050 | 7770 |
| 2026-04-28 11:00 | 5.81 | 2730 | 8260 (2013) | 69 (2006) | 2160 | 76 | 93 | 173 | 218 | 1350 | 3810 | 4080 | 7050 | 7770 |
| 2026-04-28 10:30 | 5.86 | 2780 | 8260 (2013) | 69 (2006) | 2160 | 76 | 93 | 173 | 218 | 1350 | 3810 | 4080 | 7050 | 7770 |
| 2026-04-28 10:00 | 5.91 | 2830 | 8260 (2013) | 69 (2006) | 2160 | 76 | 93 | 173 | 218 | 1350 | 3810 | 4080 | 7050 | 7770 |
| 2026-04-28 09:30 | 5.97 | 2890 | 8260 (2013) | 69 (2006) | 2160 | 76 | 93 | 173 | 218 | 1350 | 3810 | 4080 | 7050 | 7770 |
| 2026-04-28 09:00 | 6.03 | 2960 | 8260 (2013) | 69 (2006) | 2160 | 76 | 93 | 173 | 218 | 1350 | 3810 | 4080 | 7050 | 7770 |
| 2026-04-28 08:30 | 6.09 | 3020 | 8260 (2013) | 69 (2006) | 2160 | 76 | 93 | 173 | 218 | 1350 | 3810 | 4080 | 7050 | 7770 |
| 2026-04-28 08:00 | 6.17 | 3100 | 8260 (2013) | 69 (2006) | 2160 | 76 | 93 | 173 | 218 | 1350 | 3810 | 4080 | 7050 | 7770 |
| 2026-04-28 07:30 | 6.23 | 3170 | 8260 (2013) | 69 (2006) | 2160 | 76 | 93 | 173 | 218 | 1350 | 3810 | 4080 | 7050 | 7770 |
| 2026-04-28 07:00 | 6.31 | 3250 | 8260 (2013) | 69 (2006) | 2160 | 76 | 93 | 173 | 218 | 1350 | 3810 | 4080 | 7050 | 7770 |
| 2026-04-28 06:30 | 6.42 | 3380 | 8260 (2013) | 69 (2006) | 2160 | 76 | 93 | 173 | 218 | 1350 | 3810 | 4080 | 7050 | 7770 |
| 2026-04-28 06:00 | 6.53 | 3500 | 8260 (2013) | 69 (2006) | 2160 | 76 | 93 | 173 | 218 | 1350 | 3810 | 4080 | 7050 | 7770 |
| 2026-04-28 05:30 | 6.63 | 3610 | 8260 (2013) | 69 (2006) | 2160 | 76 | 93 | 173 | 218 | 1350 | 3810 | 4080 | 7050 | 7770 |
| 2026-04-28 05:00 | 6.74 | 3740 | 8260 (2013) | 69 (2006) | 2160 | 76 | 93 | 173 | 218 | 1350 | 3810 | 4080 | 7050 | 7770 |
| 2026-04-28 04:30 | 6.83 | 3840 | 8260 (2013) | 69 (2006) | 2160 | 76 | 93 | 173 | 218 | 1350 | 3810 | 4080 | 7050 | 7770 |
| 2026-04-28 04:00 | 6.97 | 4010 | 8260 (2013) | 69 (2006) | 2160 | 76 | 93 | 173 | 218 | 1350 | 3810 | 4080 | 7050 | 7770 |
| 2026-04-28 03:30 | 7.10 | 4160 | 8260 (2013) | 69 (2006) | 2160 | 76 | 93 | 173 | 218 | 1350 | 3810 | 4080 | 7050 | 7770 |
| 2026-04-28 03:00 | 7.21 | 4300 | 8260 (2013) | 69 (2006) | 2160 | 76 | 93 | 173 | 218 | 1350 | 3810 | 4080 | 7050 | 7770 |
| 2026-04-28 02:30 | 7.33 | 4440 | 8260 (2013) | 69 (2006) | 2160 | 76 | 93 | 173 | 218 | 1350 | 3810 | 4080 | 7050 | 7770 |
| 2026-04-28 02:00 | 7.44 | 4560 | 8260 (2013) | 69 (2006) | 2160 | 76 | 93 | 173 | 218 | 1350 | 3810 | 4080 | 7050 | 7770 |
| 2026-04-28 01:30 | 7.56 | 4690 | 8260 (2013) | 69 (2006) | 2160 | 76 | 93 | 173 | 218 | 1350 | 3810 | 4080 | 7050 | 7770 |
| 2026-04-28 01:00 | 7.62 | 4760 | 8260 (2013) | 69 (2006) | 2160 | 76 | 93 | 173 | 218 | 1350 | 3810 | 4080 | 7050 | 7770 |
| 2026-04-28 00:30 | 7.70 | 4840 | 8260 (2013) | 69 (2006) | 2160 | 76 | 93 | 173 | 218 | 1350 | 3810 | 4080 | 7050 | 7770 |
| 2026-04-28 00:00 | 7.71 | 4860 | 8260 (2013) | 69 (2006) | 2160 | 76 | 93 | 173 | 218 | 1350 | 3810 | 4080 | 7050 | 7770 |
| 2026-04-27 23:30 | 7.65 | 4790 | 8260 (2013) | 69 (2006) | 2160 | 76 | 93 | 173 | 218 | 1350 | 3810 | 4080 | 7050 | 7770 |
| 2026-04-27 23:00 | 7.57 | 4700 | 8260 (2013) | 69 (2006) | 2160 | 76 | 93 | 173 | 218 | 1350 | 3810 | 4080 | 7050 | 7770 |
A total of 357 rows are displayed for years 1980 through 2025.